createdAt,value
2022-09-30T00:01:06.472Z,91.50
2022-09-30T00:03:33.249Z,91.40
2022-09-30T00:06:07.105Z,91.60
2022-09-30T00:08:35.598Z,91.40
2022-09-30T00:11:05.177Z,91.40
2022-09-30T00:13:32.882Z,91.30
2022-09-30T00:16:01.168Z,91.40
2022-09-30T00:18:28.280Z,91.40
2022-09-30T00:20:56.206Z,91.30
2022-09-30T00:23:23.941Z,91.40
2022-09-30T00:25:50.686Z,91.10
2022-09-30T00:28:18.037Z,91.40
2022-09-30T00:30:44.722Z,91.30
2022-09-30T00:33:11.420Z,91.40
2022-09-30T00:35:38.333Z,91.00
2022-09-30T00:38:05.118Z,91.00
2022-09-30T00:40:31.867Z,91.40
2022-09-30T00:43:00.515Z,91.50
2022-09-30T00:45:28.855Z,91.50
2022-09-30T00:48:01.663Z,91.50
2022-09-30T00:50:37.630Z,91.10
2022-09-30T00:53:04.307Z,91.50
2022-09-30T00:55:38.055Z,91.40
2022-09-30T00:58:06.350Z,91.40
2022-09-30T01:00:33.255Z,91.60
2022-09-30T01:03:00.163Z,91.50
2022-09-30T01:05:27.502Z,91.30
2022-09-30T01:07:56.304Z,91.50
2022-09-30T01:10:23.066Z,91.40
2022-09-30T01:12:49.934Z,91.50
2022-09-30T01:15:17.185Z,91.60
2022-09-30T01:17:51.164Z,91.20
2022-09-30T01:20:17.888Z,91.60
2022-09-30T01:22:53.605Z,91.40
2022-09-30T01:25:40.541Z,91.60
2022-09-30T01:28:28.472Z,91.10
2022-09-30T01:30:55.169Z,91.60
2022-09-30T01:33:35.644Z,91.60
2022-09-30T01:36:08.202Z,91.60
2022-09-30T01:38:47.022Z,91.50
2022-09-30T01:41:22.860Z,91.60
2022-09-30T01:43:52.686Z,91.50
2022-09-30T01:46:34.840Z,91.30
2022-09-30T01:49:07.350Z,91.40
2022-09-30T01:51:43.804Z,91.60
2022-09-30T01:54:13.418Z,91.20
2022-09-30T01:56:48.560Z,91.60
2022-09-30T01:59:21.436Z,91.60
2022-09-30T02:01:54.198Z,91.60
2022-09-30T02:04:41.370Z,91.50
2022-09-30T02:07:10.936Z,91.80
2022-09-30T02:09:41.152Z,91.70
2022-09-30T02:12:09.599Z,91.60
2022-09-30T02:14:39.921Z,91.60
2022-09-30T02:17:16.137Z,91.50
2022-09-30T02:19:47.441Z,91.30
2022-09-30T02:22:16.513Z,91.60
2022-09-30T02:24:44.775Z,91.70
2022-09-30T02:27:31.776Z,91.60
2022-09-30T02:30:00.474Z,91.30
2022-09-30T02:32:30.607Z,91.50
2022-09-30T02:35:03.566Z,91.50
2022-09-30T02:37:32.767Z,91.40
2022-09-30T02:40:06.098Z,91.60
2022-09-30T02:42:32.956Z,91.70
2022-09-30T02:45:03.337Z,91.70
2022-09-30T02:47:45.329Z,91.80
2022-09-30T02:50:15.011Z,91.60
2022-09-30T02:53:05.152Z,91.60
2022-09-30T02:55:55.857Z,91.50
2022-09-30T02:58:26.109Z,91.50
2022-09-30T03:01:02.543Z,91.50
2022-09-30T03:03:32.450Z,91.50
2022-09-30T03:05:59.191Z,91.70
2022-09-30T03:08:26.259Z,91.50
2022-09-30T03:10:53.176Z,91.70
2022-09-30T03:13:28.521Z,91.50
2022-09-30T03:15:55.320Z,91.50
2022-09-30T03:18:40.503Z,91.50
2022-09-30T03:21:09.742Z,91.60
2022-09-30T03:23:54.468Z,91.40
2022-09-30T03:26:39.782Z,91.40
2022-09-30T03:29:29.435Z,91.40
2022-09-30T03:32:14.797Z,91.40
2022-09-30T03:35:00.555Z,91.40
2022-09-30T03:37:30.320Z,91.10
2022-09-30T03:39:59.729Z,91.60
2022-09-30T03:42:30.968Z,91.50
2022-09-30T03:45:21.082Z,91.60
2022-09-30T03:47:49.342Z,91.50
2022-09-30T03:50:18.488Z,91.30
2022-09-30T03:52:45.264Z,91.50
2022-09-30T03:55:12.028Z,91.30
2022-09-30T03:57:39.297Z,91.00
2022-09-30T04:00:07.118Z,91.60
2022-09-30T04:02:37.976Z,91.40
2022-09-30T04:05:05.533Z,91.40
2022-09-30T04:07:32.631Z,91.40
2022-09-30T04:09:59.527Z,91.40
2022-09-30T04:12:26.553Z,91.40
2022-09-30T04:14:53.279Z,91.60
2022-09-30T04:17:20.382Z,91.60
2022-09-30T04:19:47.056Z,91.30
2022-09-30T04:22:13.753Z,91.30
2022-09-30T04:24:40.587Z,91.40
2022-09-30T04:27:07.358Z,91.50
2022-09-30T04:29:34.028Z,91.50
2022-09-30T04:32:00.962Z,91.40
2022-09-30T04:34:27.654Z,91.30
2022-09-30T04:36:54.402Z,91.20
2022-09-30T04:39:21.157Z,91.10
2022-09-30T04:41:47.882Z,91.30
2022-09-30T04:44:14.576Z,91.30
2022-09-30T04:46:41.330Z,91.30
2022-09-30T04:49:09.566Z,91.20
2022-09-30T04:51:46.277Z,91.10
2022-09-30T04:54:13.669Z,90.90
2022-09-30T04:56:40.361Z,91.10
2022-09-30T04:59:07.176Z,90.90
2022-09-30T05:01:33.934Z,91.10
2022-09-30T05:04:08.209Z,91.20
2022-09-30T05:06:45.710Z,91.10
2022-09-30T05:09:12.467Z,90.90
2022-09-30T05:11:42.739Z,90.90
2022-09-30T05:14:09.489Z,91.20
2022-09-30T05:16:36.282Z,91.10
2022-09-30T05:19:03.583Z,91.00
2022-09-30T05:21:30.392Z,91.40
2022-09-30T05:23:57.524Z,90.90
2022-09-30T05:26:24.346Z,91.00
2022-09-30T05:28:51.048Z,91.30
2022-09-30T05:31:17.803Z,90.90
2022-09-30T05:33:45.935Z,91.30
2022-09-30T05:36:14.210Z,91.30
2022-09-30T05:38:40.950Z,91.20
2022-09-30T05:41:09.065Z,91.30
2022-09-30T05:43:37.479Z,91.40
2022-09-30T05:46:04.219Z,91.10
2022-09-30T05:48:31.037Z,91.20
2022-09-30T05:50:58.444Z,91.40
2022-09-30T05:53:25.300Z,91.50
2022-09-30T05:55:52.063Z,91.20
2022-09-30T05:58:19.105Z,91.40
2022-09-30T06:00:46.547Z,91.30
2022-09-30T06:03:13.934Z,91.60
2022-09-30T06:05:41.037Z,91.40
2022-09-30T06:08:07.899Z,91.30
2022-09-30T06:10:35.424Z,91.50
2022-09-30T06:13:05.317Z,90.90
2022-09-30T06:15:32.092Z,91.20
2022-09-30T06:17:58.895Z,90.90
2022-09-30T06:20:25.748Z,90.80
2022-09-30T06:22:52.589Z,90.80
2022-09-30T06:25:19.422Z,91.00
2022-09-30T06:27:47.131Z,91.10
2022-09-30T06:30:14.014Z,90.90
2022-09-30T06:32:40.808Z,90.90
2022-09-30T06:35:07.701Z,91.00
2022-09-30T06:37:37.273Z,91.00
2022-09-30T06:40:05.262Z,91.00
2022-09-30T06:42:32.054Z,90.70
2022-09-30T06:44:58.734Z,90.90
2022-09-30T06:47:26.273Z,90.70
2022-09-30T06:49:54.555Z,91.40
2022-09-30T06:52:21.864Z,91.00
2022-09-30T06:54:49.887Z,90.90
2022-09-30T06:57:22.352Z,90.50
2022-09-30T06:59:49.316Z,90.60
2022-09-30T07:02:16.216Z,90.80
2022-09-30T07:04:42.950Z,91.10
2022-09-30T07:07:09.737Z,90.90
2022-09-30T07:09:36.617Z,91.00
2022-09-30T07:12:03.458Z,90.60
2022-09-30T07:14:32.505Z,91.10
2022-09-30T07:16:59.685Z,91.00
2022-09-30T07:19:26.377Z,90.90
2022-09-30T07:21:53.061Z,91.00
2022-09-30T07:24:20.043Z,91.40
2022-09-30T07:26:46.738Z,91.10
2022-09-30T07:29:13.969Z,91.50
2022-09-30T07:31:41.247Z,91.30
2022-09-30T07:34:09.100Z,91.10
2022-09-30T07:36:37.128Z,91.50
2022-09-30T07:39:05.995Z,91.40
2022-09-30T07:41:34.575Z,91.50
2022-09-30T07:44:01.525Z,91.30
2022-09-30T07:46:32.455Z,91.30
2022-09-30T07:49:07.626Z,91.20
2022-09-30T07:51:35.977Z,91.30
2022-09-30T07:54:13.582Z,91.30
2022-09-30T07:57:08.324Z,91.40
2022-09-30T07:59:29.368Z,91.30
2022-09-30T08:01:56.503Z,91.20
2022-09-30T08:04:24.704Z,91.40
2022-09-30T08:06:53.341Z,91.50
2022-09-30T08:09:21.257Z,91.30
2022-09-30T08:11:48.142Z,91.40
2022-09-30T08:14:16.094Z,91.30
2022-09-30T08:16:43.109Z,91.50
2022-09-30T08:19:13.850Z,91.50
2022-09-30T08:21:40.609Z,91.50
2022-09-30T08:24:07.379Z,91.40
2022-09-30T08:26:34.193Z,91.50
2022-09-30T08:29:01.184Z,91.80
2022-09-30T08:31:28.192Z,91.50
2022-09-30T08:33:54.922Z,91.40
2022-09-30T08:36:22.942Z,91.60
2022-09-30T08:38:50.290Z,91.40
2022-09-30T08:41:16.949Z,91.70
2022-09-30T08:43:49.865Z,91.80
2022-09-30T08:46:24.174Z,91.80
2022-09-30T08:49:09.452Z,91.50
2022-09-30T08:51:43.074Z,91.60
2022-09-30T08:54:18.223Z,91.80
2022-09-30T08:56:45.320Z,91.70
2022-09-30T08:59:14.756Z,91.90
2022-09-30T09:01:44.540Z,91.90
2022-09-30T09:04:11.240Z,92.00
2022-09-30T09:06:47.287Z,91.80
2022-09-30T09:09:17.925Z,92.00
2022-09-30T09:11:48.018Z,92.20
2022-09-30T09:14:26.313Z,92.10
2022-09-30T09:16:59.176Z,92.00
2022-09-30T09:19:30.017Z,92.00
2022-09-30T09:21:59.936Z,92.10
2022-09-30T09:24:32.140Z,91.80
2022-09-30T09:27:06.701Z,91.90
2022-09-30T09:29:46.034Z,92.10
2022-09-30T09:32:14.541Z,92.00
2022-09-30T09:34:41.595Z,92.20
2022-09-30T09:37:11.391Z,91.80
2022-09-30T09:39:59.348Z,91.90
2022-09-30T09:42:36.530Z,92.00
2022-09-30T09:45:06.750Z,92.60
2022-09-30T09:47:33.834Z,92.00
2022-09-30T09:50:02.386Z,92.00
2022-09-30T09:52:29.213Z,92.30
2022-09-30T09:54:56.785Z,92.30
2022-09-30T09:57:25.833Z,92.20
2022-09-30T09:59:55.695Z,92.10
2022-09-30T10:02:24.247Z,92.00
2022-09-30T10:05:00.197Z,92.20
2022-09-30T10:07:28.648Z,92.40
2022-09-30T10:10:07.751Z,92.30
2022-09-30T10:12:34.833Z,92.20
2022-09-30T10:15:03.608Z,92.20
2022-09-30T10:17:30.354Z,92.50
2022-09-30T10:20:08.189Z,92.20
2022-09-30T10:22:36.169Z,92.30
2022-09-30T10:25:14.858Z,92.20
2022-09-30T10:27:50.057Z,92.20
2022-09-30T10:30:35.279Z,92.40
2022-09-30T10:33:04.441Z,92.40
2022-09-30T10:35:31.342Z,92.20
2022-09-30T10:37:59.405Z,92.50
2022-09-30T10:40:30.460Z,92.20
2022-09-30T10:42:57.742Z,92.20
2022-09-30T10:45:34.207Z,92.40
2022-09-30T10:48:06.936Z,92.40
2022-09-30T10:50:33.722Z,92.30
2022-09-30T10:53:00.522Z,92.50
2022-09-30T10:55:34.466Z,92.30
2022-09-30T10:58:19.703Z,92.30
2022-09-30T11:00:47.641Z,92.40
2022-09-30T11:03:20.889Z,92.80
2022-09-30T11:05:49.744Z,92.70
2022-09-30T11:08:22.291Z,92.60
2022-09-30T11:11:10.482Z,92.60
2022-09-30T11:13:43.572Z,92.40
2022-09-30T11:16:19.431Z,92.40
2022-09-30T11:19:15.308Z,92.40
2022-09-30T11:21:57.032Z,92.50
2022-09-30T11:24:23.753Z,92.60
2022-09-30T11:26:55.740Z,92.70
2022-09-30T11:29:34.706Z,92.40
2022-09-30T11:32:10.238Z,92.70
2022-09-30T11:34:43.297Z,92.40
2022-09-30T11:37:10.025Z,92.60
2022-09-30T11:39:36.718Z,92.80
2022-09-30T11:42:03.427Z,92.80
2022-09-30T11:44:34.904Z,92.80
2022-09-30T11:47:16.913Z,92.70
2022-09-30T11:49:46.651Z,92.50
2022-09-30T11:52:20.940Z,92.40
2022-09-30T11:54:47.646Z,92.60
2022-09-30T11:57:26.333Z,92.60
2022-09-30T11:59:55.841Z,92.60
2022-09-30T12:02:22.556Z,92.70
2022-09-30T12:04:52.197Z,92.70
2022-09-30T12:07:18.874Z,92.70
2022-09-30T12:09:51.279Z,92.70
2022-09-30T12:12:18.524Z,92.70
2022-09-30T12:14:53.810Z,92.80
2022-09-30T12:17:23.971Z,92.80
2022-09-30T12:19:53.276Z,92.60
2022-09-30T12:22:35.835Z,92.80
2022-09-30T12:25:11.981Z,93.00
2022-09-30T12:27:43.141Z,92.60
2022-09-30T12:30:17.865Z,92.60
2022-09-30T12:33:03.507Z,92.70
2022-09-30T12:35:38.017Z,92.90
2022-09-30T12:38:23.319Z,92.80
2022-09-30T12:41:09.316Z,92.60
2022-09-30T12:43:38.337Z,92.70
2022-09-30T12:46:13.937Z,92.90
2022-09-30T12:48:44.164Z,92.90
2022-09-30T12:51:20.014Z,92.70
2022-09-30T12:53:50.123Z,92.80
2022-09-30T12:56:17.453Z,92.70
2022-09-30T12:58:53.239Z,92.90
2022-09-30T13:01:19.957Z,92.90
2022-09-30T13:03:52.609Z,93.00
2022-09-30T13:06:21.071Z,92.70
2022-09-30T13:08:49.270Z,92.90
2022-09-30T13:11:34.168Z,93.10
2022-09-30T13:14:27.142Z,93.10
2022-09-30T13:17:08.915Z,92.90
2022-09-30T13:19:46.157Z,92.90
2022-09-30T13:22:19.105Z,93.10
2022-09-30T13:25:02.800Z,93.00
2022-09-30T13:27:35.332Z,93.00
2022-09-30T13:30:10.591Z,93.00
2022-09-30T13:32:37.921Z,93.10
2022-09-30T13:35:29.220Z,93.40
2022-09-30T13:38:17.832Z,93.00
2022-09-30T13:41:03.020Z,92.90
2022-09-30T13:43:34.266Z,93.00
2022-09-30T13:46:06.270Z,93.00
2022-09-30T13:48:34.897Z,93.10
2022-09-30T13:51:05.153Z,93.30
2022-09-30T13:53:34.836Z,92.90
2022-09-30T13:56:06.920Z,93.00
2022-09-30T13:58:52.851Z,92.90
2022-09-30T14:01:22.524Z,93.10
2022-09-30T14:04:07.243Z,92.90
2022-09-30T14:06:52.441Z,93.00
2022-09-30T14:09:38.911Z,92.90
2022-09-30T14:12:15.003Z,93.10
2022-09-30T14:15:00.721Z,93.00
2022-09-30T14:17:46.273Z,93.20
2022-09-30T14:20:16.396Z,93.00
2022-09-30T14:22:43.161Z,93.00
2022-09-30T14:25:14.101Z,93.40
2022-09-30T14:27:40.840Z,93.20
2022-09-30T14:30:16.519Z,93.00
2022-09-30T14:32:46.601Z,93.00
2022-09-30T14:35:16.434Z,93.10
2022-09-30T14:37:45.813Z,93.20
2022-09-30T14:40:16.351Z,93.20
2022-09-30T14:42:45.441Z,93.20
2022-09-30T14:45:26.242Z,93.00
2022-09-30T14:47:55.049Z,93.20
2022-09-30T14:50:26.030Z,93.40
2022-09-30T14:52:55.821Z,93.10
2022-09-30T14:55:28.549Z,93.40
2022-09-30T14:57:59.012Z,93.00
2022-09-30T15:00:31.155Z,93.00
2022-09-30T15:02:59.313Z,93.20
2022-09-30T15:05:26.911Z,93.20
2022-09-30T15:07:54.592Z,93.00
2022-09-30T15:10:23.110Z,93.10
2022-09-30T15:12:50.538Z,93.00
2022-09-30T15:15:25.595Z,93.00
2022-09-30T15:17:55.385Z,93.10
2022-09-30T15:20:25.955Z,93.20
2022-09-30T15:22:53.266Z,93.00
2022-09-30T15:25:21.894Z,93.10
2022-09-30T15:27:50.215Z,93.20
2022-09-30T15:30:18.200Z,93.00
2022-09-30T15:32:46.157Z,93.20
2022-09-30T15:35:15.485Z,93.10
2022-09-30T15:37:43.526Z,93.00
2022-09-30T15:40:33.427Z,93.10
2022-09-30T15:43:02.839Z,93.10
2022-09-30T15:45:34.635Z,93.40
2022-09-30T15:48:04.625Z,93.20
2022-09-30T15:50:35.367Z,93.40
2022-09-30T15:53:05.947Z,93.10
2022-09-30T15:55:37.528Z,93.20
2022-09-30T15:58:05.184Z,93.10
2022-09-30T16:00:35.864Z,93.10
2022-09-30T16:03:17.944Z,93.10
2022-09-30T16:05:45.580Z,93.10
2022-09-30T16:08:22.052Z,93.00
2022-09-30T16:10:50.487Z,93.20
2022-09-30T16:13:17.197Z,93.20
2022-09-30T16:15:43.956Z,93.40
2022-09-30T16:18:17.380Z,93.10
2022-09-30T16:20:55.907Z,93.00
2022-09-30T16:23:36.098Z,93.20
2022-09-30T16:26:18.067Z,93.20
2022-09-30T16:28:44.949Z,93.10
2022-09-30T16:31:12.109Z,93.10
2022-09-30T16:33:41.602Z,93.10
2022-09-30T16:36:11.885Z,93.30
2022-09-30T16:38:38.651Z,93.10
2022-09-30T16:41:05.514Z,93.20
2022-09-30T16:43:32.255Z,93.10
2022-09-30T16:45:59.920Z,93.20
2022-09-30T16:48:27.249Z,93.00
2022-09-30T16:51:12.657Z,93.10
2022-09-30T16:53:39.456Z,93.20
2022-09-30T16:56:06.306Z,93.20
2022-09-30T16:58:33.100Z,93.10
2022-09-30T17:01:00.522Z,93.10
2022-09-30T17:03:28.141Z,93.10
2022-09-30T17:05:54.944Z,93.00
2022-09-30T17:08:24.086Z,93.40
2022-09-30T17:10:51.246Z,93.20
2022-09-30T17:13:18.242Z,93.40
2022-09-30T17:15:48.859Z,93.30
2022-09-30T17:18:17.379Z,93.20
2022-09-30T17:20:45.414Z,93.20
2022-09-30T17:23:12.416Z,93.10
2022-09-30T17:25:41.160Z,93.20
2022-09-30T17:28:08.553Z,93.00
2022-09-30T17:30:35.422Z,93.30
2022-09-30T17:33:02.148Z,93.10
2022-09-30T17:35:28.926Z,93.00
2022-09-30T17:37:56.483Z,93.20
2022-09-30T17:40:41.540Z,93.10
2022-09-30T17:43:10.384Z,93.40
2022-09-30T17:45:38.588Z,93.10
2022-09-30T17:48:08.977Z,93.20
2022-09-30T17:50:36.364Z,93.40
2022-09-30T17:53:03.232Z,93.10
2022-09-30T17:55:30.405Z,93.30
2022-09-30T17:57:57.153Z,93.20
2022-09-30T18:00:23.887Z,93.20
2022-09-30T18:02:50.661Z,93.10
2022-09-30T18:05:17.372Z,93.20
2022-09-30T18:07:45.260Z,93.30
2022-09-30T18:10:12.716Z,93.20
2022-09-30T18:12:39.864Z,93.00
2022-09-30T18:15:07.055Z,93.10
2022-09-30T18:17:33.882Z,93.20
2022-09-30T18:20:00.695Z,93.30
2022-09-30T18:22:27.443Z,93.20
2022-09-30T18:25:12.770Z,93.20
2022-09-30T18:27:39.469Z,93.30
2022-09-30T18:30:06.486Z,93.30
2022-09-30T18:32:33.959Z,93.20
2022-09-30T18:35:00.690Z,93.30
2022-09-30T18:37:28.739Z,93.40
2022-09-30T18:39:55.470Z,93.20
2022-09-30T18:42:22.163Z,93.10
2022-09-30T18:44:51.027Z,93.30
2022-09-30T18:47:18.335Z,93.30
2022-09-30T18:49:45.043Z,93.20
2022-09-30T18:52:11.815Z,93.20
2022-09-30T18:54:38.750Z,93.30
2022-09-30T18:57:05.459Z,93.30
2022-09-30T18:59:32.177Z,93.20
2022-09-30T19:02:00.487Z,93.20
2022-09-30T19:04:27.346Z,93.40
2022-09-30T19:06:54.106Z,93.40
2022-09-30T19:09:20.962Z,93.20
2022-09-30T19:11:49.221Z,93.20
2022-09-30T19:14:16.034Z,93.40
2022-09-30T19:16:43.526Z,93.10
2022-09-30T19:19:10.985Z,93.20
2022-09-30T19:21:38.542Z,93.20
2022-09-30T19:24:06.125Z,93.40
2022-09-30T19:26:33.995Z,93.20
2022-09-30T19:29:00.673Z,93.60
2022-09-30T19:31:28.105Z,93.40
2022-09-30T19:33:57.038Z,93.50
2022-09-30T19:36:24.849Z,93.30
2022-09-30T19:38:57.533Z,93.20
2022-09-30T19:41:29.551Z,93.30
2022-09-30T19:43:56.795Z,93.30
2022-09-30T19:46:25.032Z,93.30
2022-09-30T19:48:51.743Z,93.30
2022-09-30T19:51:18.558Z,93.30
2022-09-30T19:54:01.466Z,93.20
2022-09-30T19:56:31.236Z,93.20
2022-09-30T19:59:00.140Z,93.20
2022-09-30T20:01:28.599Z,93.20
2022-09-30T20:03:56.263Z,93.20
2022-09-30T20:06:23.367Z,93.30
2022-09-30T20:08:52.093Z,93.40
2022-09-30T20:11:20.063Z,93.30
2022-09-30T20:13:49.143Z,93.40
2022-09-30T20:16:16.178Z,93.30
2022-09-30T20:18:43.439Z,93.40
2022-09-30T20:21:10.123Z,93.30
2022-09-30T20:23:39.038Z,93.40
2022-09-30T20:26:06.781Z,93.40
2022-09-30T20:28:33.652Z,93.30
2022-09-30T20:31:04.889Z,93.30
2022-09-30T20:33:31.618Z,93.40
2022-09-30T20:35:59.791Z,93.30
2022-09-30T20:38:26.520Z,93.30
2022-09-30T20:40:54.474Z,93.10
2022-09-30T20:43:21.229Z,93.40
2022-09-30T20:45:55.472Z,93.40
2022-09-30T20:48:22.305Z,93.50
2022-09-30T20:50:49.226Z,93.40
2022-09-30T20:53:16.445Z,93.30
2022-09-30T20:55:43.672Z,93.40
2022-09-30T20:58:11.160Z,93.40
2022-09-30T21:00:39.732Z,93.30
2022-09-30T21:03:11.312Z,93.40
2022-09-30T21:05:38.431Z,93.30
2022-09-30T21:08:07.456Z,93.60
2022-09-30T21:10:35.377Z,93.40
2022-09-30T21:13:02.132Z,93.40
2022-09-30T21:15:31.407Z,93.20
2022-09-30T21:17:58.262Z,93.40
2022-09-30T21:20:24.991Z,93.30
2022-09-30T21:22:53.480Z,93.20
2022-09-30T21:25:20.671Z,93.20
2022-09-30T21:27:48.733Z,93.20
2022-09-30T21:30:18.285Z,93.40
2022-09-30T21:32:45.395Z,93.50
2022-09-30T21:35:13.783Z,93.40
2022-09-30T21:37:41.205Z,93.40
2022-09-30T21:40:09.223Z,93.20
2022-09-30T21:42:36.180Z,93.30
2022-09-30T21:45:03.655Z,93.20
2022-09-30T21:47:30.512Z,93.30
2022-09-30T21:49:57.500Z,93.20
2022-09-30T21:52:24.247Z,93.40
2022-09-30T21:54:55.795Z,93.40
2022-09-30T21:57:22.612Z,93.40
2022-09-30T21:59:50.535Z,93.40
2022-09-30T22:02:17.491Z,93.40
2022-09-30T22:04:44.273Z,93.30
2022-09-30T22:07:11.037Z,93.40
2022-09-30T22:09:39.637Z,93.40
2022-09-30T22:12:08.722Z,93.30
2022-09-30T22:14:36.823Z,93.40
2022-09-30T22:17:04.627Z,93.40
2022-09-30T22:19:31.323Z,93.30
2022-09-30T22:21:58.175Z,93.20
2022-09-30T22:24:24.868Z,93.40
2022-09-30T22:26:52.839Z,93.40
2022-09-30T22:29:19.757Z,93.30
2022-09-30T22:31:46.563Z,93.50
2022-09-30T22:34:32.655Z,93.50
2022-09-30T22:37:18.259Z,93.30
2022-09-30T22:39:45.020Z,93.40
2022-09-30T22:42:11.775Z,93.30
2022-09-30T22:44:39.197Z,93.20
2022-09-30T22:47:08.085Z,93.40
2022-09-30T22:49:35.058Z,93.40
2022-09-30T22:52:02.179Z,93.30
2022-09-30T22:54:29.567Z,93.40
2022-09-30T22:56:58.375Z,93.40
2022-09-30T22:59:25.436Z,93.20
2022-09-30T23:01:52.239Z,93.40
2022-09-30T23:04:19.192Z,93.30
2022-09-30T23:06:50.336Z,93.30
2022-09-30T23:09:17.702Z,93.40
2022-09-30T23:11:45.318Z,93.40
2022-09-30T23:14:12.323Z,93.40
2022-09-30T23:16:39.195Z,93.30
2022-09-30T23:19:05.962Z,93.40
2022-09-30T23:21:33.792Z,93.30
2022-09-30T23:24:01.205Z,93.40
2022-09-30T23:26:28.723Z,93.40
2022-09-30T23:28:58.522Z,93.20
2022-09-30T23:31:25.606Z,93.30
2022-09-30T23:33:53.577Z,93.30
2022-09-30T23:36:21.821Z,93.50
2022-09-30T23:38:48.583Z,93.50
2022-09-30T23:41:15.346Z,93.30
2022-09-30T23:43:48.440Z,93.40
2022-09-30T23:46:16.637Z,93.40
2022-09-30T23:48:45.826Z,93.30
2022-09-30T23:51:13.203Z,93.40
2022-09-30T23:53:40.044Z,93.30
2022-09-30T23:56:08.338Z,93.20
2022-09-30T23:58:35.759Z,93.40
